sensor_id;sensor_type;location;lat;lon;timestamp;P1;durP1;ratioP1;P2;durP2;ratioP2
46455;SDS011;64052;47.466;9.094;2023-02-15T00:03:59;12.27;;;7.53;;
46455;SDS011;64052;47.466;9.094;2023-02-15T00:09:01;10.82;;;7.57;;
46455;SDS011;64052;47.466;9.094;2023-02-15T00:14:04;8.88;;;7.90;;
46455;SDS011;64052;47.466;9.094;2023-02-15T00:19:22;8.93;;;6.80;;
46455;SDS011;64052;47.466;9.094;2023-02-15T00:24:24;11.52;;;7.95;;
46455;SDS011;64052;47.466;9.094;2023-02-15T00:29:26;9.77;;;8.05;;
46455;SDS011;64052;47.466;9.094;2023-02-15T00:34:27;12.32;;;8.52;;
46455;SDS011;64052;47.466;9.094;2023-02-15T00:39:30;8.00;;;6.93;;
46455;SDS011;64052;47.466;9.094;2023-02-15T00:44:32;10.73;;;8.68;;
46455;SDS011;64052;47.466;9.094;2023-02-15T00:49:34;9.73;;;7.35;;
46455;SDS011;64052;47.466;9.094;2023-02-15T00:54:35;12.10;;;8.65;;
46455;SDS011;64052;47.466;9.094;2023-02-15T00:59:37;9.98;;;7.38;;
46455;SDS011;64052;47.466;9.094;2023-02-15T01:04:39;10.18;;;7.45;;
46455;SDS011;64052;47.466;9.094;2023-02-15T01:09:41;10.45;;;7.78;;
46455;SDS011;64052;47.466;9.094;2023-02-15T01:14:42;11.27;;;8.05;;
46455;SDS011;64052;47.466;9.094;2023-02-15T01:19:44;10.23;;;7.55;;
46455;SDS011;64052;47.466;9.094;2023-02-15T01:24:48;14.05;;;8.00;;
46455;SDS011;64052;47.466;9.094;2023-02-15T01:29:50;9.40;;;7.40;;
46455;SDS011;64052;47.466;9.094;2023-02-15T01:34:52;9.98;;;7.25;;
46455;SDS011;64052;47.466;9.094;2023-02-15T01:39:54;11.65;;;7.97;;
46455;SDS011;64052;47.466;9.094;2023-02-15T01:44:56;10.07;;;8.57;;
46455;SDS011;64052;47.466;9.094;2023-02-15T01:55:20;8.55;;;7.53;;
46455;SDS011;64052;47.466;9.094;2023-02-15T02:00:23;8.10;;;6.68;;
46455;SDS011;64052;47.466;9.094;2023-02-15T02:05:25;9.82;;;7.25;;
46455;SDS011;64052;47.466;9.094;2023-02-15T02:10:26;10.30;;;7.20;;
46455;SDS011;64052;47.466;9.094;2023-02-15T02:27:29;11.75;;;7.07;;
46455;SDS011;64052;47.466;9.094;2023-02-15T02:42:40;10.40;;;8.10;;
46455;SDS011;64052;47.466;9.094;2023-02-15T02:53:09;10.03;;;6.97;;
46455;SDS011;64052;47.466;9.094;2023-02-15T03:03:26;10.07;;;7.57;;
46455;SDS011;64052;47.466;9.094;2023-02-15T03:08:38;8.27;;;5.97;;
46455;SDS011;64052;47.466;9.094;2023-02-15T03:13:44;10.03;;;7.53;;
46455;SDS011;64052;47.466;9.094;2023-02-15T03:18:58;11.67;;;7.57;;
46455;SDS011;64052;47.466;9.094;2023-02-15T03:24:07;9.90;;;7.40;;
46455;SDS011;64052;47.466;9.094;2023-02-15T03:29:16;11.07;;;7.70;;
46455;SDS011;64052;47.466;9.094;2023-02-15T03:34:22;8.87;;;7.20;;
46455;SDS011;64052;47.466;9.094;2023-02-15T03:39:28;9.27;;;7.47;;
46455;SDS011;64052;47.466;9.094;2023-02-15T03:45:09;10.27;;;7.00;;
46455;SDS011;64052;47.466;9.094;2023-02-15T03:50:05;8.00;;;6.57;;
46455;SDS011;64052;47.466;9.094;2023-02-15T03:55:09;10.00;;;8.27;;
46455;SDS011;64052;47.466;9.094;2023-02-15T04:00:12;11.17;;;7.33;;
46455;SDS011;64052;47.466;9.094;2023-02-15T04:05:19;9.60;;;7.90;;
46455;SDS011;64052;47.466;9.094;2023-02-15T04:10:21;9.37;;;7.43;;
46455;SDS011;64052;47.466;9.094;2023-02-15T04:15:22;11.60;;;9.37;;
46455;SDS011;64052;47.466;9.094;2023-02-15T04:20:24;10.53;;;7.80;;
46455;SDS011;64052;47.466;9.094;2023-02-15T04:25:25;11.53;;;9.10;;
46455;SDS011;64052;47.466;9.094;2023-02-15T04:30:27;10.67;;;7.47;;
46455;SDS011;64052;47.466;9.094;2023-02-15T04:35:29;9.77;;;7.50;;
46455;SDS011;64052;47.466;9.094;2023-02-15T04:40:30;12.83;;;10.13;;
46455;SDS011;64052;47.466;9.094;2023-02-15T04:45:32;10.10;;;7.47;;
46455;SDS011;64052;47.466;9.094;2023-02-15T04:50:33;12.00;;;7.70;;
46455;SDS011;64052;47.466;9.094;2023-02-15T04:55:35;11.97;;;8.60;;
46455;SDS011;64052;47.466;9.094;2023-02-15T05:00:39;10.40;;;7.70;;
46455;SDS011;64052;47.466;9.094;2023-02-15T05:05:40;11.63;;;9.13;;
46455;SDS011;64052;47.466;9.094;2023-02-15T05:10:42;15.00;;;9.53;;
46455;SDS011;64052;47.466;9.094;2023-02-15T05:15:50;10.97;;;8.07;;
46455;SDS011;64052;47.466;9.094;2023-02-15T05:20:53;9.48;;;7.30;;
46455;SDS011;64052;47.466;9.094;2023-02-15T05:25:54;11.43;;;7.73;;
46455;SDS011;64052;47.466;9.094;2023-02-15T05:31:03;8.47;;;7.00;;
46455;SDS011;64052;47.466;9.094;2023-02-15T05:36:09;11.90;;;7.60;;
46455;SDS011;64052;47.466;9.094;2023-02-15T05:41:11;8.60;;;7.67;;
46455;SDS011;64052;47.466;9.094;2023-02-15T05:46:12;7.03;;;6.27;;
46455;SDS011;64052;47.466;9.094;2023-02-15T05:51:14;7.60;;;6.20;;
46455;SDS011;64052;47.466;9.094;2023-02-15T05:56:16;9.03;;;7.20;;
46455;SDS011;64052;47.466;9.094;2023-02-15T06:01:18;7.30;;;6.60;;
46455;SDS011;64052;47.466;9.094;2023-02-15T06:06:20;8.53;;;6.13;;
46455;SDS011;64052;47.466;9.094;2023-02-15T06:11:21;10.23;;;6.73;;
46455;SDS011;64052;47.466;9.094;2023-02-15T06:16:23;9.13;;;7.27;;
46455;SDS011;64052;47.466;9.094;2023-02-15T06:21:24;8.10;;;6.90;;
46455;SDS011;64052;47.466;9.094;2023-02-15T06:26:26;8.53;;;7.73;;
46455;SDS011;64052;47.466;9.094;2023-02-15T06:31:28;9.73;;;7.07;;
46455;SDS011;64052;47.466;9.094;2023-02-15T06:36:30;9.63;;;7.80;;
46455;SDS011;64052;47.466;9.094;2023-02-15T06:41:32;10.97;;;8.37;;
46455;SDS011;64052;47.466;9.094;2023-02-15T06:46:33;8.67;;;7.10;;
46455;SDS011;64052;47.466;9.094;2023-02-15T06:51:35;8.40;;;7.50;;
46455;SDS011;64052;47.466;9.094;2023-02-15T06:56:37;10.53;;;8.10;;
46455;SDS011;64052;47.466;9.094;2023-02-15T07:01:38;11.40;;;8.63;;
46455;SDS011;64052;47.466;9.094;2023-02-15T07:06:40;10.33;;;8.10;;
46455;SDS011;64052;47.466;9.094;2023-02-15T07:11:41;11.03;;;7.37;;
46455;SDS011;64052;47.466;9.094;2023-02-15T07:16:43;12.47;;;7.87;;
46455;SDS011;64052;47.466;9.094;2023-02-15T07:21:44;11.63;;;7.43;;
46455;SDS011;64052;47.466;9.094;2023-02-15T07:26:46;8.30;;;7.30;;
46455;SDS011;64052;47.466;9.094;2023-02-15T07:31:47;8.07;;;7.27;;
46455;SDS011;64052;47.466;9.094;2023-02-15T07:36:50;13.53;;;9.13;;
46455;SDS011;64052;47.466;9.094;2023-02-15T07:41:52;8.43;;;7.27;;
46455;SDS011;64052;47.466;9.094;2023-02-15T07:46:55;10.83;;;8.20;;
46455;SDS011;64052;47.466;9.094;2023-02-15T07:51:56;10.43;;;8.57;;
46455;SDS011;64052;47.466;9.094;2023-02-15T07:56:58;11.80;;;7.67;;
46455;SDS011;64052;47.466;9.094;2023-02-15T08:02:01;14.10;;;9.05;;
46455;SDS011;64052;47.466;9.094;2023-02-15T08:07:02;14.98;;;8.02;;
46455;SDS011;64052;47.466;9.094;2023-02-15T08:12:04;10.75;;;9.70;;
46455;SDS011;64052;47.466;9.094;2023-02-15T08:17:05;8.90;;;8.05;;
46455;SDS011;64052;47.466;9.094;2023-02-15T08:22:07;9.23;;;7.85;;
46455;SDS011;64052;47.466;9.094;2023-02-15T08:27:13;8.50;;;7.60;;
46455;SDS011;64052;47.466;9.094;2023-02-15T08:32:14;8.48;;;7.22;;
46455;SDS011;64052;47.466;9.094;2023-02-15T08:37:16;8.68;;;6.65;;
46455;SDS011;64052;47.466;9.094;2023-02-15T08:42:17;9.38;;;7.40;;
46455;SDS011;64052;47.466;9.094;2023-02-15T08:47:19;7.85;;;6.38;;
46455;SDS011;64052;47.466;9.094;2023-02-15T08:52:20;8.68;;;6.72;;
46455;SDS011;64052;47.466;9.094;2023-02-15T08:57:22;7.45;;;6.63;;
46455;SDS011;64052;47.466;9.094;2023-02-15T09:02:24;11.30;;;7.00;;
46455;SDS011;64052;47.466;9.094;2023-02-15T09:07:25;7.30;;;6.32;;
46455;SDS011;64052;47.466;9.094;2023-02-15T09:12:27;8.45;;;7.18;;
46455;SDS011;64052;47.466;9.094;2023-02-15T09:17:28;7.20;;;6.40;;
46455;SDS011;64052;47.466;9.094;2023-02-15T09:22:30;8.55;;;7.35;;
46455;SDS011;64052;47.466;9.094;2023-02-15T09:27:31;9.85;;;6.65;;
46455;SDS011;64052;47.466;9.094;2023-02-15T09:32:33;8.02;;;6.95;;
46455;SDS011;64052;47.466;9.094;2023-02-15T09:37:34;8.80;;;6.60;;
46455;SDS011;64052;47.466;9.094;2023-02-15T09:42:48;10.10;;;7.30;;
46455;SDS011;64052;47.466;9.094;2023-02-15T10:04:51;9.63;;;7.65;;
46455;SDS011;64052;47.466;9.094;2023-02-15T10:36:35;11.20;;;7.15;;
46455;SDS011;64052;47.466;9.094;2023-02-15T11:02:48;10.73;;;7.78;;
46455;SDS011;64052;47.466;9.094;2023-02-15T11:07:50;7.40;;;6.50;;
46455;SDS011;64052;47.466;9.094;2023-02-15T11:12:56;10.55;;;7.30;;
46455;SDS011;64052;47.466;9.094;2023-02-15T11:18:08;9.63;;;7.88;;
46455;SDS011;64052;47.466;9.094;2023-02-15T11:23:15;9.25;;;7.85;;
46455;SDS011;64052;47.466;9.094;2023-02-15T11:28:19;9.55;;;8.45;;
46455;SDS011;64052;47.466;9.094;2023-02-15T11:33:27;9.47;;;7.73;;
46455;SDS011;64052;47.466;9.094;2023-02-15T11:38:32;9.63;;;8.10;;
46455;SDS011;64052;47.466;9.094;2023-02-15T11:43:46;8.60;;;7.70;;
46455;SDS011;64052;47.466;9.094;2023-02-15T11:48:56;9.88;;;8.18;;
46455;SDS011;64052;47.466;9.094;2023-02-15T11:53:57;9.70;;;8.60;;
46455;SDS011;64052;47.466;9.094;2023-02-15T11:59:18;8.48;;;7.57;;
46455;SDS011;64052;47.466;9.094;2023-02-15T12:04:32;9.35;;;7.88;;
46455;SDS011;64052;47.466;9.094;2023-02-15T12:10:03;10.77;;;8.70;;
46455;SDS011;64052;47.466;9.094;2023-02-15T12:15:10;10.57;;;8.55;;
46455;SDS011;64052;47.466;9.094;2023-02-15T12:25:21;8.88;;;7.90;;
46455;SDS011;64052;47.466;9.094;2023-02-15T12:30:30;9.95;;;8.85;;
46455;SDS011;64052;47.466;9.094;2023-02-15T12:35:35;10.93;;;9.27;;
46455;SDS011;64052;47.466;9.094;2023-02-15T12:40:38;9.70;;;8.70;;
46455;SDS011;64052;47.466;9.094;2023-02-15T12:45:39;11.23;;;8.68;;
46455;SDS011;64052;47.466;9.094;2023-02-15T12:50:42;9.38;;;8.38;;
46455;SDS011;64052;47.466;9.094;2023-02-15T12:55:56;10.77;;;9.20;;
46455;SDS011;64052;47.466;9.094;2023-02-15T13:06:10;10.63;;;9.20;;
46455;SDS011;64052;47.466;9.094;2023-02-15T13:11:12;9.95;;;8.95;;
46455;SDS011;64052;47.466;9.094;2023-02-15T13:16:31;9.88;;;8.95;;
46455;SDS011;64052;47.466;9.094;2023-02-15T13:21:36;11.23;;;9.48;;
46455;SDS011;64052;47.466;9.094;2023-02-15T13:26:41;13.75;;;10.77;;
46455;SDS011;64052;47.466;9.094;2023-02-15T13:31:43;10.82;;;9.38;;
46455;SDS011;64052;47.466;9.094;2023-02-15T13:47:30;12.80;;;9.70;;
46455;SDS011;64052;47.466;9.094;2023-02-15T13:52:34;11.48;;;9.10;;
46455;SDS011;64052;47.466;9.094;2023-02-15T14:08:13;12.10;;;10.38;;
46455;SDS011;64052;47.466;9.094;2023-02-15T14:18:57;13.13;;;10.35;;
46455;SDS011;64052;47.466;9.094;2023-02-15T14:55:36;13.93;;;10.52;;
46455;SDS011;64052;47.466;9.094;2023-02-15T15:00:38;14.38;;;11.07;;
46455;SDS011;64052;47.466;9.094;2023-02-15T15:05:49;15.25;;;10.45;;
46455;SDS011;64052;47.466;9.094;2023-02-15T15:10:53;14.63;;;11.15;;
46455;SDS011;64052;47.466;9.094;2023-02-15T15:15:55;11.57;;;9.93;;
46455;SDS011;64052;47.466;9.094;2023-02-15T15:20:57;12.95;;;9.82;;
46455;SDS011;64052;47.466;9.094;2023-02-15T15:31:50;15.88;;;9.60;;
46455;SDS011;64052;47.466;9.094;2023-02-15T15:37:08;17.10;;;11.98;;
46455;SDS011;64052;47.466;9.094;2023-02-15T15:42:12;14.98;;;11.15;;
46455;SDS011;64052;47.466;9.094;2023-02-15T15:53:06;16.23;;;11.30;;
46455;SDS011;64052;47.466;9.094;2023-02-15T15:58:21;16.65;;;11.35;;
46455;SDS011;64052;47.466;9.094;2023-02-15T16:03:25;20.67;;;14.43;;
46455;SDS011;64052;47.466;9.094;2023-02-15T16:08:30;20.98;;;13.88;;
46455;SDS011;64052;47.466;9.094;2023-02-15T16:13:34;17.10;;;12.15;;
46455;SDS011;64052;47.466;9.094;2023-02-15T16:18:36;20.88;;;12.80;;
46455;SDS011;64052;47.466;9.094;2023-02-15T16:23:48;20.35;;;13.55;;
46455;SDS011;64052;47.466;9.094;2023-02-15T16:28:59;16.92;;;12.30;;
46455;SDS011;64052;47.466;9.094;2023-02-15T16:34:07;21.35;;;12.27;;
46455;SDS011;64052;47.466;9.094;2023-02-15T16:39:18;22.30;;;14.45;;
46455;SDS011;64052;47.466;9.094;2023-02-15T16:44:20;17.48;;;11.77;;
46455;SDS011;64052;47.466;9.094;2023-02-15T16:49:23;17.27;;;12.90;;
46455;SDS011;64052;47.466;9.094;2023-02-15T16:54:27;18.30;;;13.27;;
46455;SDS011;64052;47.466;9.094;2023-02-15T16:59:35;18.98;;;12.57;;
46455;SDS011;64052;47.466;9.094;2023-02-15T17:04:40;14.73;;;10.73;;
46455;SDS011;64052;47.466;9.094;2023-02-15T17:09:52;19.77;;;12.98;;
46455;SDS011;64052;47.466;9.094;2023-02-15T17:14:55;15.30;;;10.13;;
46455;SDS011;64052;47.466;9.094;2023-02-15T17:19:57;18.15;;;11.43;;
46455;SDS011;64052;47.466;9.094;2023-02-15T17:25:01;16.40;;;11.15;;
46455;SDS011;64052;47.466;9.094;2023-02-15T17:30:14;16.73;;;11.10;;
46455;SDS011;64052;47.466;9.094;2023-02-15T17:35:23;19.05;;;12.02;;
46455;SDS011;64052;47.466;9.094;2023-02-15T17:40:31;17.40;;;12.40;;
46455;SDS011;64052;47.466;9.094;2023-02-15T17:45:36;16.77;;;10.98;;
46455;SDS011;64052;47.466;9.094;2023-02-15T17:50:44;18.63;;;12.63;;
46455;SDS011;64052;47.466;9.094;2023-02-15T17:55:46;17.67;;;12.13;;
46455;SDS011;64052;47.466;9.094;2023-02-15T18:00:48;19.67;;;12.50;;
46455;SDS011;64052;47.466;9.094;2023-02-15T18:05:52;19.58;;;12.60;;
46455;SDS011;64052;47.466;9.094;2023-02-15T18:10:54;19.13;;;14.05;;
46455;SDS011;64052;47.466;9.094;2023-02-15T18:15:56;16.80;;;12.55;;
46455;SDS011;64052;47.466;9.094;2023-02-15T18:20:57;20.10;;;11.88;;
46455;SDS011;64052;47.466;9.094;2023-02-15T18:25:59;17.25;;;13.10;;
46455;SDS011;64052;47.466;9.094;2023-02-15T18:31:00;19.90;;;12.85;;
46455;SDS011;64052;47.466;9.094;2023-02-15T18:36:03;17.55;;;12.23;;
46455;SDS011;64052;47.466;9.094;2023-02-15T18:41:08;25.10;;;13.65;;
46455;SDS011;64052;47.466;9.094;2023-02-15T18:46:18;18.80;;;12.95;;
46455;SDS011;64052;47.466;9.094;2023-02-15T18:51:20;18.20;;;13.38;;
46455;SDS011;64052;47.466;9.094;2023-02-15T18:56:24;19.98;;;11.55;;
46455;SDS011;64052;47.466;9.094;2023-02-15T19:01:26;18.13;;;11.60;;
46455;SDS011;64052;47.466;9.094;2023-02-15T19:06:28;16.33;;;11.80;;
46455;SDS011;64052;47.466;9.094;2023-02-15T19:11:30;23.58;;;14.07;;
46455;SDS011;64052;47.466;9.094;2023-02-15T19:16:32;15.25;;;10.50;;
46455;SDS011;64052;47.466;9.094;2023-02-15T19:21:35;19.50;;;13.75;;
46455;SDS011;64052;47.466;9.094;2023-02-15T19:26:37;24.58;;;16.30;;
46455;SDS011;64052;47.466;9.094;2023-02-15T19:31:46;23.40;;;13.63;;
46455;SDS011;64052;47.466;9.094;2023-02-15T19:36:48;16.70;;;11.93;;
46455;SDS011;64052;47.466;9.094;2023-02-15T19:41:53;17.05;;;12.77;;
46455;SDS011;64052;47.466;9.094;2023-02-15T19:46:55;17.45;;;11.77;;
46455;SDS011;64052;47.466;9.094;2023-02-15T19:51:57;22.00;;;11.98;;
46455;SDS011;64052;47.466;9.094;2023-02-15T19:57:00;18.95;;;12.13;;
46455;SDS011;64052;47.466;9.094;2023-02-15T20:02:02;22.83;;;12.45;;
46455;SDS011;64052;47.466;9.094;2023-02-15T20:07:04;18.38;;;12.57;;
46455;SDS011;64052;47.466;9.094;2023-02-15T20:12:18;18.55;;;13.60;;
46455;SDS011;64052;47.466;9.094;2023-02-15T20:17:24;23.60;;;13.88;;
46455;SDS011;64052;47.466;9.094;2023-02-15T20:22:26;17.35;;;11.80;;
46455;SDS011;64052;47.466;9.094;2023-02-15T20:27:27;19.95;;;12.85;;
46455;SDS011;64052;47.466;9.094;2023-02-15T20:32:29;22.83;;;15.25;;
46455;SDS011;64052;47.466;9.094;2023-02-15T20:37:31;16.17;;;12.55;;
46455;SDS011;64052;47.466;9.094;2023-02-15T20:42:34;20.98;;;12.90;;
46455;SDS011;64052;47.466;9.094;2023-02-15T20:47:36;22.17;;;13.20;;
46455;SDS011;64052;47.466;9.094;2023-02-15T20:52:37;18.23;;;12.32;;
46455;SDS011;64052;47.466;9.094;2023-02-15T20:57:39;16.08;;;12.50;;
46455;SDS011;64052;47.466;9.094;2023-02-15T21:02:40;14.70;;;10.98;;
46455;SDS011;64052;47.466;9.094;2023-02-15T21:07:42;20.08;;;13.18;;
46455;SDS011;64052;47.466;9.094;2023-02-15T21:12:44;17.05;;;12.63;;
46455;SDS011;64052;47.466;9.094;2023-02-15T21:17:46;24.42;;;14.75;;
46455;SDS011;64052;47.466;9.094;2023-02-15T21:22:47;31.50;;;23.17;;
46455;SDS011;64052;47.466;9.094;2023-02-15T21:27:49;23.13;;;16.40;;
46455;SDS011;64052;47.466;9.094;2023-02-15T21:32:50;23.23;;;15.05;;
46455;SDS011;64052;47.466;9.094;2023-02-15T21:37:52;24.65;;;14.98;;
46455;SDS011;64052;47.466;9.094;2023-02-15T21:42:54;21.83;;;15.13;;
46455;SDS011;64052;47.466;9.094;2023-02-15T21:47:56;20.42;;;13.82;;
46455;SDS011;64052;47.466;9.094;2023-02-15T21:52:57;23.48;;;14.10;;
46455;SDS011;64052;47.466;9.094;2023-02-15T21:57:59;19.75;;;13.50;;
46455;SDS011;64052;47.466;9.094;2023-02-15T22:03:01;24.88;;;16.48;;
46455;SDS011;64052;47.466;9.094;2023-02-15T22:08:11;23.40;;;14.82;;
46455;SDS011;64052;47.466;9.094;2023-02-15T22:13:15;21.52;;;15.77;;
46455;SDS011;64052;47.466;9.094;2023-02-15T22:18:23;18.95;;;14.77;;
46455;SDS011;64052;47.466;9.094;2023-02-15T22:23:33;19.05;;;13.35;;
46455;SDS011;64052;47.466;9.094;2023-02-15T22:28:38;17.38;;;11.02;;
46455;SDS011;64052;47.466;9.094;2023-02-15T22:33:41;18.02;;;12.73;;
46455;SDS011;64052;47.466;9.094;2023-02-15T22:38:43;20.42;;;12.05;;
46455;SDS011;64052;47.466;9.094;2023-02-15T22:43:45;17.40;;;12.05;;
46455;SDS011;64052;47.466;9.094;2023-02-15T22:48:47;18.08;;;12.65;;
46455;SDS011;64052;47.466;9.094;2023-02-15T22:53:49;20.13;;;14.40;;
46455;SDS011;64052;47.466;9.094;2023-02-15T22:58:51;23.35;;;15.07;;
46455;SDS011;64052;47.466;9.094;2023-02-15T23:04:00;23.33;;;14.60;;
46455;SDS011;64052;47.466;9.094;2023-02-15T23:09:04;21.75;;;14.25;;
46455;SDS011;64052;47.466;9.094;2023-02-15T23:14:08;18.38;;;11.85;;
46455;SDS011;64052;47.466;9.094;2023-02-15T23:19:25;16.87;;;11.93;;
46455;SDS011;64052;47.466;9.094;2023-02-15T23:24:27;18.55;;;12.77;;
46455;SDS011;64052;47.466;9.094;2023-02-15T23:29:31;19.80;;;14.13;;
46455;SDS011;64052;47.466;9.094;2023-02-15T23:34:32;16.80;;;12.18;;
46455;SDS011;64052;47.466;9.094;2023-02-15T23:39:34;16.00;;;11.57;;
46455;SDS011;64052;47.466;9.094;2023-02-15T23:44:36;18.90;;;12.38;;
46455;SDS011;64052;47.466;9.094;2023-02-15T23:49:38;19.02;;;12.70;;
46455;SDS011;64052;47.466;9.094;2023-02-15T23:54:40;19.80;;;12.13;;
46455;SDS011;64052;47.466;9.094;2023-02-15T23:59:41;17.30;;;12.07;;
